Ikke nødvendig med spesiell oppmerksomhet.   -   Ingen advarsler for øyeblikket

METAR Rapporter

 

ENZV - Stavanger
Oppdatert: 15/12/2017 22:20
klart
klart
 Vind fra calm
Vind: Stille
Temperatur: -4°C
Duggpunkt: -5°C
Fuktighet: 93%
Barometer: 998 hPa
Oversikt: klart
Sikt: greater than 10 km
2017/12/15 21:20 ENZV 152120Z 00000KT CAVOK M04/M05 Q0998
ENBR - Bergen
Oppdatert: 15/12/2017 22:20
klart
klart
 Vind fra NØ
Vind: NØ 7 km/h
Temperatur: -5°C
Vindkjøling: -8°C
Duggpunkt: -7°C
Fuktighet: 86%
Barometer: 998 hPa
Oversikt: klart
Sikt: greater than 10 km
2017/12/15 21:20 ENBR 152120Z 04004KT CAVOK M05/M07 Q0998 RMK WIND 1200FT 36011KT
 
ENHD - Haugesund
Oppdatert: 15/12/2017 22:20
Enkelte skyer
Enkelte skyer
 Vind fra ØNØ
Vind: ØNØ 7 km/h
Temperatur: -3°C
Vindkjøling: -6°C
Duggpunkt: -5°C
Fuktighet: 86%
Barometer: 998 hPa
Skyet: Enkelte skyer
Sikt: 10 km
2017/12/15 21:20 ENHD 152120Z 07004KT 030V100 9999 FEW020CB FEW090 M03/M05 Q0998
ENCN - Kristiansand
Oppdatert: 15/12/2017 22:20
klart
klart
 Vind fra varies
Vind: varies 4 km/h
Temperatur: -5°C
Duggpunkt: -6°C
Fuktighet: 93%
Barometer: 996 hPa
Oversikt: klart
Sikt: greater than 10 km
2017/12/15 21:20 ENCN 152120Z VRB02KT CAVOK M05/M06 Q0996
 
ENBO - Bodø
Oppdatert: 15/12/2017 22:20
hovedsaklig skyet
hovedsaklig skyet
 Vind fra Ø
Vind: Ø 28 km/h
Temperatur: -2°C
Vindkjøling: -9°C
Duggpunkt: -6°C
Fuktighet: 74%
Barometer: 995 hPa
Skyet: hovedsaklig skyet
Sikt: 10 km
2017/12/15 21:20 ENBO 152120Z 08015KT 9999 FEW020 BKN050 M02/M06 Q0995 NOSIG
ENKR - Kirkenes
Oppdatert: 15/12/2017 22:20
klart
klart
 Vind fra SSØ
Vind: SSØ 15 km/h
Temperatur: -7°C
Vindkjøling: -13°C
Duggpunkt: -9°C
Fuktighet: 86%
Barometer: 999 hPa
Oversikt: klart
Sikt: greater than 10 km
2017/12/15 21:20 ENKR 152120Z 16008KT CAVOK M07/M09 Q0999 RMK WIND 731FT 17016KT
 
ENVA - Trondheim
Oppdatert: 15/12/2017 22:20
hovedsaklig skyet
hovedsaklig skyet
 Vind fra Ø
Vind: Ø 9 km/h
Temperatur: -10°C
Vindkjøling: -15°C
Duggpunkt: -12°C
Fuktighet: 85%
Barometer: 998 hPa
Skyet: hovedsaklig skyet
Sikt: 10 km
2017/12/15 21:20 ENVA 152120Z 08005KT 9999 BKN033 M10/M12 Q0998 RMK WIND 670FT 16007KT
ENGM - Oslo
Oppdatert: 15/12/2017 22:20
Light snow, partly cloudy
Light snow, partly cloudy
 Vind fra N
Vind: N 7 km/h
Temperatur: -3°C
Vindkjøling: -6°C
Duggpunkt: -7°C
Fuktighet: 74%
Barometer: 994 hPa
Oversikt: Lett snø
Skyet: delvis skyet
Sikt: 10 km
2017/12/15 21:20 ENGM 152120Z 35004KT 9999 -SN NSC M03/M07 Q0994 NOSIG